createdAt,value
2022-11-25T00:01:16.681Z,100804.44
2022-11-25T00:03:45.640Z,100800.00
2022-11-25T00:06:16.202Z,100793.78
2022-11-25T00:08:45.803Z,100795.44
2022-11-25T00:11:14.269Z,100792.66
2022-11-25T00:13:44.620Z,100783.78
2022-11-25T00:16:14.752Z,100781.00
2022-11-25T00:18:45.601Z,100777.38
2022-11-25T00:21:15.617Z,100782.47
2022-11-25T00:23:43.381Z,100783.19
2022-11-25T00:26:12.878Z,100778.66
2022-11-25T00:28:41.703Z,100775.84
2022-11-25T00:31:13.959Z,100763.41
2022-11-25T00:33:42.921Z,100784.25
2022-11-25T00:36:16.875Z,100785.84
2022-11-25T00:38:45.374Z,100786.50
2022-11-25T00:41:31.298Z,100778.41
2022-11-25T00:44:17.008Z,100778.22
2022-11-25T00:46:46.746Z,100783.25
2022-11-25T00:49:14.551Z,100780.44
2022-11-25T00:51:42.303Z,100779.38
2022-11-25T00:54:10.031Z,100780.06
2022-11-25T00:56:37.865Z,100781.66
2022-11-25T00:59:06.217Z,100779.69
2022-11-25T01:01:34.362Z,100786.47
2022-11-25T01:04:05.361Z,100794.16
2022-11-25T01:06:34.083Z,100787.81
2022-11-25T01:09:01.995Z,100788.53
2022-11-25T01:11:29.885Z,100787.53
2022-11-25T01:14:01.364Z,100778.63
2022-11-25T01:16:30.021Z,100782.00
2022-11-25T01:18:59.351Z,100785.38
2022-11-25T01:21:30.592Z,100786.13
2022-11-25T01:24:00.484Z,100789.44
2022-11-25T01:26:29.174Z,100783.09
2022-11-25T01:28:58.774Z,100780.31
2022-11-25T01:31:28.474Z,100785.38
2022-11-25T01:33:59.008Z,100782.63
2022-11-25T01:36:28.821Z,100785.13
2022-11-25T01:38:58.534Z,100788.41
2022-11-25T01:41:29.176Z,100787.44
2022-11-25T01:44:05.724Z,100788.19
2022-11-25T01:46:47.658Z,100782.84
2022-11-25T01:49:18.678Z,100778.41
2022-11-25T01:51:54.056Z,100779.22
2022-11-25T01:54:28.229Z,100785.22
2022-11-25T01:57:02.109Z,100781.66
2022-11-25T01:59:33.497Z,100790.25
2022-11-25T02:02:01.940Z,100778.78
2022-11-25T02:04:35.947Z,100783.06
2022-11-25T02:07:10.975Z,100782.09
2022-11-25T02:09:42.683Z,100775.88
2022-11-25T02:12:11.633Z,100780.16
2022-11-25T02:14:39.805Z,100777.41
2022-11-25T02:17:07.974Z,100796.53
2022-11-25T02:19:49.402Z,100778.91
2022-11-25T02:22:24.999Z,100789.22
2022-11-25T02:24:57.735Z,100785.59
2022-11-25T02:27:27.083Z,100773.22
2022-11-25T02:29:55.615Z,100784.47
2022-11-25T02:32:24.471Z,100773.84
2022-11-25T02:34:52.245Z,100781.56
2022-11-25T02:37:24.011Z,100784.97
2022-11-25T02:39:54.448Z,100788.41
2022-11-25T02:42:24.081Z,100792.56
2022-11-25T02:44:53.443Z,100785.47
2022-11-25T02:47:21.259Z,100783.72
2022-11-25T02:49:49.095Z,100775.81
2022-11-25T02:52:16.868Z,100775.81
2022-11-25T02:54:44.680Z,100774.78
2022-11-25T02:57:12.508Z,100780.78
2022-11-25T02:59:40.260Z,100773.78
2022-11-25T03:02:10.276Z,100772.88
2022-11-25T03:04:38.867Z,100765.00
2022-11-25T03:07:06.882Z,100777.88
2022-11-25T03:09:34.689Z,100779.59
2022-11-25T03:12:16.356Z,100776.94
2022-11-25T03:14:44.164Z,100775.00
2022-11-25T03:17:14.585Z,100777.56
2022-11-25T03:19:42.476Z,100777.56
2022-11-25T03:22:10.247Z,100771.44
2022-11-25T03:24:39.681Z,100769.78
2022-11-25T03:27:09.046Z,100763.81
2022-11-25T03:29:36.998Z,100770.84
2022-11-25T03:32:09.323Z,100770.84
2022-11-25T03:34:39.866Z,100764.81
2022-11-25T03:37:09.190Z,100771.84
2022-11-25T03:39:37.969Z,100773.53
2022-11-25T03:42:07.370Z,100778.63
2022-11-25T03:44:35.424Z,100768.09
2022-11-25T03:47:03.471Z,100768.84
2022-11-25T03:49:31.336Z,100770.50
2022-11-25T03:52:00.477Z,100769.50
2022-11-25T03:54:28.548Z,100774.53
2022-11-25T03:57:22.922Z,100781.34
2022-11-25T03:59:50.859Z,100774.28
2022-11-25T04:02:19.524Z,100777.66
2022-11-25T04:04:48.210Z,100776.72
2022-11-25T04:07:18.505Z,100771.44
2022-11-25T04:09:46.677Z,100766.06
2022-11-25T04:12:36.369Z,100760.78
2022-11-25T04:15:09.900Z,100758.09
2022-11-25T04:17:39.370Z,100755.63
2022-11-25T04:20:08.533Z,100762.72
2022-11-25T04:22:38.047Z,100768.88
2022-11-25T04:25:08.382Z,100773.09
2022-11-25T04:27:37.004Z,100773.84
2022-11-25T04:30:06.042Z,100776.31
2022-11-25T04:32:38.034Z,100774.63
2022-11-25T04:35:07.937Z,100778.06
2022-11-25T04:37:36.085Z,100772.97
2022-11-25T04:40:06.713Z,100773.91
2022-11-25T04:42:36.912Z,100773.97
2022-11-25T04:45:25.896Z,100767.03
2022-11-25T04:47:56.305Z,100768.81
2022-11-25T04:50:25.550Z,100774.03
2022-11-25T04:53:04.374Z,100765.31
2022-11-25T04:55:33.841Z,100761.78
2022-11-25T04:58:05.440Z,100775.63
2022-11-25T05:00:34.398Z,100784.34
2022-11-25T05:03:02.995Z,100779.06
2022-11-25T05:05:32.376Z,100781.69
2022-11-25T05:08:00.318Z,100769.50
2022-11-25T05:10:28.620Z,100772.97
2022-11-25T05:12:57.727Z,100766.00
2022-11-25T05:15:25.477Z,100769.50
2022-11-25T05:17:54.330Z,100766.94
2022-11-25T05:20:35.957Z,100767.94
2022-11-25T05:23:04.037Z,100767.97
2022-11-25T05:25:31.910Z,100778.47
2022-11-25T05:28:19.519Z,100775.06
2022-11-25T05:30:47.504Z,100775.06
2022-11-25T05:33:16.106Z,100769.00
2022-11-25T05:35:44.203Z,100774.22
2022-11-25T05:38:12.115Z,100775.06
2022-11-25T05:40:40.251Z,100772.44
2022-11-25T05:43:13.730Z,100776.78
2022-11-25T05:45:43.812Z,100773.25
2022-11-25T05:48:13.610Z,100778.47
2022-11-25T05:50:42.853Z,100778.47
2022-11-25T05:53:18.208Z,100782.81
2022-11-25T05:55:56.156Z,100774.09
2022-11-25T05:58:40.203Z,100773.25
2022-11-25T06:01:10.933Z,100773.31
2022-11-25T06:03:39.259Z,100776.78
2022-11-25T06:06:08.423Z,100777.66
2022-11-25T06:08:37.961Z,100782.06
2022-11-25T06:11:07.510Z,100779.56
2022-11-25T06:13:35.781Z,100774.53
2022-11-25T06:16:10.335Z,100779.03
2022-11-25T06:18:39.666Z,100777.41
2022-11-25T06:21:10.257Z,100769.56
2022-11-25T06:23:39.779Z,100776.56
2022-11-25T06:26:09.338Z,100773.06
2022-11-25T06:28:37.766Z,100778.28
2022-11-25T06:31:07.737Z,100770.38
2022-11-25T06:33:42.807Z,100779.94
2022-11-25T06:36:16.899Z,100780.00
2022-11-25T06:38:45.201Z,100791.28
2022-11-25T06:41:13.457Z,100790.41
2022-11-25T06:43:42.075Z,100788.59
2022-11-25T06:46:11.953Z,100784.25
2022-11-25T06:48:40.072Z,100793.81
2022-11-25T06:51:12.418Z,100781.66
2022-11-25T06:53:40.794Z,100799.94
2022-11-25T06:56:12.102Z,100797.31
2022-11-25T06:58:41.057Z,100799.06
2022-11-25T07:01:12.757Z,100793.75
2022-11-25T07:03:41.487Z,100797.22
2022-11-25T07:06:12.623Z,100802.44
2022-11-25T07:08:40.672Z,100806.69
2022-11-25T07:11:11.528Z,100805.00
2022-11-25T07:13:39.595Z,100805.00
2022-11-25T07:16:08.771Z,100811.09
2022-11-25T07:18:38.753Z,100805.88
2022-11-25T07:21:08.812Z,100809.31
2022-11-25T07:23:38.877Z,100808.44
2022-11-25T07:26:08.980Z,100812.78
2022-11-25T07:28:37.644Z,100811.88
2022-11-25T07:31:23.332Z,100811.03
2022-11-25T07:33:53.329Z,100816.34
2022-11-25T07:36:21.555Z,100818.13
2022-11-25T07:38:50.780Z,100813.06
2022-11-25T07:41:20.429Z,100822.75
2022-11-25T07:43:49.614Z,100828.13
2022-11-25T07:46:27.034Z,100824.72
2022-11-25T07:48:57.333Z,100828.34
2022-11-25T07:51:26.761Z,100831.03
2022-11-25T07:53:57.317Z,100824.19
2022-11-25T07:56:25.726Z,100828.69
2022-11-25T07:58:53.501Z,100827.00
2022-11-25T08:01:21.314Z,100831.50
2022-11-25T08:03:51.221Z,100835.94
2022-11-25T08:06:20.883Z,100836.94
2022-11-25T08:08:49.513Z,100834.31
2022-11-25T08:11:20.921Z,100839.63
2022-11-25T08:13:49.549Z,100838.81
2022-11-25T08:16:19.769Z,100838.81
2022-11-25T08:18:48.320Z,100836.22
2022-11-25T08:21:17.987Z,100840.75
2022-11-25T08:23:48.647Z,100843.56
2022-11-25T08:26:20.883Z,100849.72
2022-11-25T08:28:48.761Z,100843.78
2022-11-25T08:31:18.969Z,100840.41
2022-11-25T08:33:47.287Z,100846.63
2022-11-25T08:36:15.913Z,100851.09
2022-11-25T08:38:45.194Z,100848.66
2022-11-25T08:41:15.203Z,100842.69
2022-11-25T08:43:44.521Z,100845.50
2022-11-25T08:46:15.517Z,100855.28
2022-11-25T08:48:43.832Z,100848.47
2022-11-25T08:51:14.290Z,100849.56
2022-11-25T08:53:42.624Z,100845.41
2022-11-25T08:56:10.831Z,100853.56
2022-11-25T08:58:41.802Z,100858.13
2022-11-25T09:01:12.077Z,100854.91
2022-11-25T09:03:42.661Z,100846.44
2022-11-25T09:06:11.905Z,100849.25
2022-11-25T09:08:40.913Z,100850.50
2022-11-25T09:11:09.703Z,100848.97
2022-11-25T09:13:37.633Z,100843.06
2022-11-25T09:16:06.085Z,100845.84
2022-11-25T09:18:37.024Z,100842.50
2022-11-25T09:21:09.644Z,100849.69
2022-11-25T09:23:38.543Z,100860.25
2022-11-25T09:26:07.599Z,100862.16
2022-11-25T09:28:36.665Z,100857.91
2022-11-25T09:31:09.589Z,100867.69
2022-11-25T09:33:38.841Z,100869.59
2022-11-25T09:36:07.167Z,100863.63
2022-11-25T09:38:40.148Z,100863.84
2022-11-25T09:41:39.895Z,100869.22
2022-11-25T09:44:34.335Z,100872.97
2022-11-25T09:47:11.355Z,100875.00
2022-11-25T09:49:54.871Z,100878.78
2022-11-25T09:52:34.958Z,100871.13
2022-11-25T09:55:07.022Z,100880.19
2022-11-25T09:57:55.112Z,100873.44
2022-11-25T10:00:33.612Z,100870.19
2022-11-25T10:03:07.422Z,100869.56
2022-11-25T10:05:40.125Z,100868.88
2022-11-25T10:08:12.538Z,100869.06
2022-11-25T10:10:45.130Z,100864.03
2022-11-25T10:13:18.984Z,100867.72
2022-11-25T10:15:49.871Z,100861.84
2022-11-25T10:18:26.101Z,100866.38
2022-11-25T10:20:55.345Z,100863.16
2022-11-25T10:23:28.348Z,100865.13
2022-11-25T10:26:00.368Z,100861.84
2022-11-25T10:28:32.067Z,100854.19
2022-11-25T10:31:03.765Z,100857.88
2022-11-25T10:33:33.994Z,100858.03
2022-11-25T10:36:11.764Z,100853.88
2022-11-25T10:38:44.147Z,100854.94
2022-11-25T10:41:16.149Z,100852.50
2022-11-25T10:43:44.942Z,100856.22
2022-11-25T10:46:23.366Z,100850.28
2022-11-25T10:49:00.523Z,100849.56
2022-11-25T10:51:38.291Z,100850.69
2022-11-25T10:54:14.962Z,100844.78
2022-11-25T10:56:49.623Z,100844.09
2022-11-25T10:59:25.098Z,100850.47
2022-11-25T11:01:54.468Z,100856.81
2022-11-25T11:04:22.285Z,100853.56
2022-11-25T11:06:51.670Z,100847.69
2022-11-25T11:09:33.819Z,100855.88
2022-11-25T11:12:14.399Z,100849.09
2022-11-25T11:14:42.608Z,100851.09
2022-11-25T11:17:31.848Z,100850.44
2022-11-25T11:20:20.514Z,100851.56
2022-11-25T11:23:01.928Z,100847.44
2022-11-25T11:25:34.535Z,100851.25
2022-11-25T11:28:03.704Z,100854.97
2022-11-25T11:30:33.801Z,100852.59
2022-11-25T11:33:04.882Z,100840.47
2022-11-25T11:35:55.818Z,100842.38
2022-11-25T11:38:34.159Z,100849.56
2022-11-25T11:41:14.652Z,100845.28
2022-11-25T11:43:56.525Z,100839.22
2022-11-25T11:46:36.486Z,100856.03
2022-11-25T11:49:24.009Z,100846.41
2022-11-25T11:52:03.951Z,100849.13
2022-11-25T11:54:36.791Z,100856.25
2022-11-25T11:57:08.288Z,100858.97
2022-11-25T11:59:49.228Z,100849.38
2022-11-25T12:02:29.600Z,100843.31
2022-11-25T12:05:07.132Z,100847.81
2022-11-25T12:07:42.665Z,100850.56
2022-11-25T12:10:23.446Z,100848.97
2022-11-25T12:12:55.837Z,100856.16
2022-11-25T12:15:33.304Z,100858.94
2022-11-25T12:18:09.136Z,100846.66
2022-11-25T12:20:45.041Z,100858.22
2022-11-25T12:23:19.736Z,100860.09
2022-11-25T12:25:56.033Z,100853.94
2022-11-25T12:28:29.822Z,100844.28
2022-11-25T12:31:07.195Z,100848.72
2022-11-25T12:33:44.993Z,100849.69
2022-11-25T12:36:17.649Z,100852.31
2022-11-25T12:38:51.782Z,100860.28
2022-11-25T12:41:28.961Z,100856.81
2022-11-25T12:44:01.587Z,100863.03
2022-11-25T12:46:36.213Z,100867.41
2022-11-25T12:49:04.520Z,100865.69
2022-11-25T12:51:59.012Z,100876.31
2022-11-25T12:54:55.179Z,100876.31
2022-11-25T12:57:50.383Z,100875.44
2022-11-25T13:03:32.637Z,100886.88
2022-11-25T13:06:28.939Z,100878.94
2022-11-25T13:09:00.447Z,100875.38
2022-11-25T13:11:49.798Z,100876.28
2022-11-25T13:14:27.863Z,100887.78
2022-11-25T13:16:57.700Z,100888.63
2022-11-25T13:19:25.819Z,100893.06
2022-11-25T13:22:02.627Z,100894.81
2022-11-25T13:24:35.659Z,100886.88
2022-11-25T13:27:05.268Z,100893.03
2022-11-25T13:30:04.365Z,100897.41
2022-11-25T13:32:37.821Z,100892.97
2022-11-25T13:35:47.816Z,100899.13
2022-11-25T13:38:39.967Z,100900.84
2022-11-25T13:41:24.859Z,100899.06
2022-11-25T13:44:07.379Z,100908.78
2022-11-25T13:46:40.725Z,100911.38
2022-11-25T13:49:25.957Z,100912.22
2022-11-25T13:51:56.318Z,100922.78
2022-11-25T13:54:28.156Z,100913.97
2022-11-25T13:57:19.950Z,100929.78
2022-11-25T13:59:53.670Z,100928.00
2022-11-25T14:02:32.298Z,100928.00
2022-11-25T14:05:12.601Z,100935.88
2022-11-25T14:07:47.211Z,100941.13
2022-11-25T14:10:27.619Z,100941.09
2022-11-25T14:13:08.448Z,100943.69
2022-11-25T14:16:01.097Z,100942.78
2022-11-25T14:22:02.085Z,100948.84
2022-11-25T14:24:35.284Z,100954.09
2022-11-25T14:27:04.387Z,100950.53
2022-11-25T14:29:39.664Z,100966.34
2022-11-25T14:32:11.525Z,100956.63
2022-11-25T14:34:44.095Z,100963.63
2022-11-25T14:37:17.627Z,100968.91
2022-11-25T14:39:51.530Z,100970.59
2022-11-25T14:42:23.385Z,100967.06
2022-11-25T14:44:52.602Z,100983.75
2022-11-25T14:47:23.985Z,100984.59
2022-11-25T14:50:18.919Z,100988.94
2022-11-25T14:52:45.969Z,100988.88
2022-11-25T14:55:18.026Z,100992.38
2022-11-25T14:57:46.264Z,100989.69
2022-11-25T15:00:17.051Z,100994.03
2022-11-25T15:02:54.346Z,100989.56
2022-11-25T15:05:26.236Z,100986.91
2022-11-25T15:08:00.669Z,100993.00
2022-11-25T15:10:45.901Z,100998.22
2022-11-25T15:13:24.848Z,101001.72
2022-11-25T15:15:55.623Z,100999.88
2022-11-25T15:18:25.867Z,101004.25
2022-11-25T15:20:59.396Z,101004.22
2022-11-25T15:23:32.147Z,101009.44
2022-11-25T15:26:01.116Z,101017.34
2022-11-25T15:28:35.131Z,101020.78
2022-11-25T15:31:08.848Z,101022.53
2022-11-25T15:33:38.276Z,101023.34
2022-11-25T15:36:08.324Z,101024.19
2022-11-25T15:38:41.035Z,101031.19
2022-11-25T15:41:18.426Z,101036.44
2022-11-25T15:43:48.618Z,101036.38
2022-11-25T15:46:17.780Z,101038.13
2022-11-25T15:48:47.358Z,101034.56
2022-11-25T15:51:35.373Z,101030.13
2022-11-25T15:54:08.708Z,101036.22
2022-11-25T15:56:40.518Z,101042.38
2022-11-25T15:59:41.883Z,101040.53
2022-11-25T16:02:34.867Z,101043.16
2022-11-25T16:05:35.987Z,101041.34
2022-11-25T16:08:26.293Z,101053.63
2022-11-25T16:10:57.189Z,101057.09
2022-11-25T16:13:40.273Z,101057.94
2022-11-25T16:16:23.849Z,101051.75
2022-11-25T16:19:11.570Z,101055.19
2022-11-25T16:21:52.339Z,101056.91
2022-11-25T16:24:32.822Z,101059.50
2022-11-25T16:27:02.656Z,101057.72
2022-11-25T16:29:33.718Z,101059.44
2022-11-25T16:32:02.525Z,101067.31
2022-11-25T16:34:30.866Z,101057.63
2022-11-25T16:36:58.640Z,101068.13
2022-11-25T16:39:27.817Z,101068.09
2022-11-25T16:41:58.526Z,101066.31
2022-11-25T16:44:28.117Z,101075.06
2022-11-25T16:46:56.123Z,101075.91
2022-11-25T16:49:24.497Z,101083.78
2022-11-25T16:51:52.298Z,101077.63
2022-11-25T16:54:21.327Z,101085.50
2022-11-25T16:56:53.861Z,101089.00
2022-11-25T16:59:29.584Z,101104.81
2022-11-25T17:01:58.161Z,101107.44
2022-11-25T17:04:26.008Z,101107.38
2022-11-25T17:07:24.200Z,101100.34
2022-11-25T17:09:42.726Z,101102.03
2022-11-25T17:12:17.235Z,101105.63
2022-11-25T17:14:47.981Z,101112.66
2022-11-25T17:17:24.512Z,101112.66
2022-11-25T17:19:55.059Z,101116.19
2022-11-25T17:22:25.062Z,101119.66
2022-11-25T17:24:53.772Z,101117.88
2022-11-25T17:27:26.015Z,101123.13
2022-11-25T17:29:55.369Z,101126.66
2022-11-25T17:32:24.064Z,101124.88
2022-11-25T17:34:51.969Z,101136.28
2022-11-25T17:37:22.692Z,101136.28
2022-11-25T17:39:52.606Z,101138.91
2022-11-25T17:42:26.620Z,101140.69
2022-11-25T17:44:54.634Z,101142.41
2022-11-25T17:47:22.521Z,101147.63
2022-11-25T17:49:50.407Z,101145.88
2022-11-25T17:52:18.157Z,101145.88
2022-11-25T17:54:45.963Z,101151.16
2022-11-25T17:57:18.908Z,101152.88
2022-11-25T17:59:48.267Z,101156.38
2022-11-25T18:02:19.512Z,101159.00
2022-11-25T18:04:47.791Z,101166.91
2022-11-25T18:07:15.743Z,101167.75
2022-11-25T18:09:44.388Z,101173.91
2022-11-25T18:12:17.619Z,101169.47
2022-11-25T18:14:46.333Z,101175.63
2022-11-25T18:17:19.142Z,101180.94
2022-11-25T18:19:51.461Z,101181.00
2022-11-25T18:22:23.582Z,101189.78
2022-11-25T18:24:51.373Z,101200.31
2022-11-25T18:27:23.791Z,101194.22
2022-11-25T18:29:52.517Z,101190.69
2022-11-25T18:32:22.688Z,101199.53
2022-11-25T18:34:50.705Z,101201.28
2022-11-25T18:37:18.488Z,101202.16
2022-11-25T18:39:46.603Z,101203.03
2022-11-25T18:42:24.136Z,101203.97
2022-11-25T18:44:52.139Z,101207.47
2022-11-25T18:47:21.429Z,101221.53
2022-11-25T18:49:55.175Z,101222.41
2022-11-25T18:52:24.257Z,101223.34
2022-11-25T18:54:52.054Z,101218.06
2022-11-25T18:57:20.074Z,101228.59
2022-11-25T19:00:00.204Z,101222.50
2022-11-25T19:02:37.298Z,101234.84
2022-11-25T19:05:15.833Z,101242.75
2022-11-25T19:07:43.643Z,101235.72
2022-11-25T19:10:13.834Z,101241.91
2022-11-25T19:12:44.532Z,101245.44
2022-11-25T19:15:15.125Z,101248.94
2022-11-25T19:17:49.191Z,101247.19
2022-11-25T19:20:17.999Z,101245.38
2022-11-25T19:22:45.768Z,101252.47
2022-11-25T19:25:14.199Z,101255.94
2022-11-25T19:27:45.596Z,101255.06
2022-11-25T19:30:17.633Z,101269.00
2022-11-25T19:32:48.523Z,101270.72
2022-11-25T19:35:18.617Z,101268.88
2022-11-25T19:37:46.682Z,101277.63
2022-11-25T19:40:17.436Z,101280.13
2022-11-25T19:42:46.090Z,101283.56
2022-11-25T19:45:15.811Z,101288.75
2022-11-25T19:47:45.233Z,101294.84
2022-11-25T19:50:20.618Z,101299.09
2022-11-25T19:52:49.820Z,101305.16
2022-11-25T19:55:19.774Z,101306.81
2022-11-25T19:57:48.161Z,101313.72
2022-11-25T20:00:18.679Z,101306.59
2022-11-25T20:02:47.786Z,101313.44
2022-11-25T20:05:21.349Z,101320.34
2022-11-25T20:07:49.671Z,101320.97
2022-11-25T20:10:20.628Z,101330.47
2022-11-25T20:12:48.832Z,101332.03
2022-11-25T20:15:16.932Z,101332.81
2022-11-25T20:17:47.350Z,101337.94
2022-11-25T20:20:20.907Z,101341.34
2022-11-25T20:22:55.942Z,101347.38
2022-11-25T20:25:24.152Z,101356.09
2022-11-25T20:27:52.219Z,101352.50
2022-11-25T20:30:22.552Z,101348.88
2022-11-25T20:32:50.377Z,101361.16
2022-11-25T20:35:20.876Z,101362.03
2022-11-25T20:37:54.090Z,101358.47
2022-11-25T20:40:24.739Z,101356.72
2022-11-25T20:42:53.808Z,101359.25
2022-11-25T20:45:23.464Z,101366.22
2022-11-25T20:47:52.926Z,101369.63
2022-11-25T20:50:23.300Z,101380.16
2022-11-25T20:52:51.593Z,101380.16
2022-11-25T20:55:21.982Z,101381.03
2022-11-25T20:57:50.564Z,101380.09
2022-11-25T21:00:23.191Z,101378.28
2022-11-25T21:02:51.414Z,101388.78
2022-11-25T21:05:19.513Z,101388.81
2022-11-25T21:07:50.850Z,101384.41
2022-11-25T21:10:23.273Z,101392.34
2022-11-25T21:12:51.254Z,101393.25
2022-11-25T21:15:22.250Z,101400.38
2022-11-25T21:17:50.211Z,101408.38
2022-11-25T21:20:19.290Z,101407.53
2022-11-25T21:22:51.649Z,101416.41
2022-11-25T21:25:22.105Z,101426.94
2022-11-25T21:27:51.245Z,101427.84
2022-11-25T21:30:20.977Z,101423.59
2022-11-25T21:32:48.850Z,101428.03
2022-11-25T21:35:16.800Z,101432.50
2022-11-25T21:37:45.469Z,101429.94
2022-11-25T21:40:37.432Z,101430.81
2022-11-25T21:43:06.065Z,101436.13
2022-11-25T21:45:33.966Z,101438.81
2022-11-25T21:48:01.778Z,101445.84
2022-11-25T21:50:30.009Z,101452.88
2022-11-25T21:52:58.064Z,101454.63
2022-11-25T21:55:27.157Z,101452.81
2022-11-25T21:57:54.933Z,101457.19
2022-11-25T22:00:25.832Z,101453.69
2022-11-25T22:02:54.278Z,101462.53
2022-11-25T22:05:25.516Z,101451.94
2022-11-25T22:07:54.935Z,101465.16
2022-11-25T22:10:23.724Z,101473.88
2022-11-25T22:12:52.876Z,101468.69
2022-11-25T22:15:22.535Z,101468.72
2022-11-25T22:17:54.530Z,101474.09
2022-11-25T22:20:29.126Z,101469.72
2022-11-25T22:22:57.527Z,101476.84
2022-11-25T22:25:27.922Z,101475.19
2022-11-25T22:27:57.420Z,101485.78
2022-11-25T22:30:25.274Z,101478.81
2022-11-25T22:33:00.926Z,101489.44
2022-11-25T22:35:29.517Z,101486.81
2022-11-25T22:37:57.301Z,101498.22
2022-11-25T22:40:25.340Z,101492.09
2022-11-25T22:42:56.250Z,101505.34
2022-11-25T22:45:31.710Z,101508.00
2022-11-25T22:48:01.649Z,101512.50
2022-11-25T22:50:32.708Z,101514.28
2022-11-25T22:53:01.587Z,101517.00
2022-11-25T22:55:31.571Z,101517.97
2022-11-25T22:58:00.753Z,101522.38
2022-11-25T23:00:32.854Z,101517.09
2022-11-25T23:03:02.426Z,101524.22
2022-11-25T23:05:33.814Z,101527.75
2022-11-25T23:08:02.566Z,101526.91
2022-11-25T23:10:32.553Z,101530.47
2022-11-25T23:13:00.330Z,101541.13
2022-11-25T23:15:30.726Z,101538.50
2022-11-25T23:18:02.024Z,101534.19
2022-11-25T23:20:31.254Z,101536.91
2022-11-25T23:22:59.818Z,101536.06
2022-11-25T23:25:27.795Z,101532.66
2022-11-25T23:27:55.539Z,101538.00
2022-11-25T23:30:24.639Z,101538.09
2022-11-25T23:32:55.153Z,101538.97
2022-11-25T23:35:30.511Z,101551.31
2022-11-25T23:37:59.696Z,101555.72
2022-11-25T23:40:28.067Z,101555.75
2022-11-25T23:42:57.096Z,101560.16
2022-11-25T23:45:27.808Z,101554.88
2022-11-25T23:47:57.811Z,101558.47
2022-11-25T23:50:29.727Z,101563.78
2022-11-25T23:53:01.202Z,101563.78
2022-11-25T23:55:31.990Z,101560.31
2022-11-25T23:58:02.265Z,101563.78
